Time;durP1;ratioP1;P1;durP2;ratioP2;P2;SDS_P1;SDS_P2;PMS_P1;PMS_P2;Temp;Humidity;BMP_temperature;BMP_pressure;BME280_temperature;BME280_humidity;BME280_pressure;Samples;Min_cycle;Max_cycle;Signal;HPM_P1;HPM_P2
2023/04/06 00:00:36;;;;;;;80.55;17.70;;;;;;;;;;5071341;28;20211;-67
2023/04/06 00:03:05;;;;;;;73.88;16.50;;;;;;;;;;5075096;28;20295;-67
2023/04/06 00:05:32;;;;;;;73.57;14.77;;;;;;;;;;5075820;28;20296;-67
2023/04/06 00:08:00;;;;;;;72.32;14.75;;;;;;;;;;5075468;28;20301;-67
2023/04/06 00:10:27;;;;;;;75.97;14.93;;;;;;;;;;5075846;28;20204;-67
2023/04/06 00:12:54;;;;;;;79.18;15.15;;;;;;;;;;5075810;28;20641;-67
2023/04/06 00:15:21;;;;;;;72.90;15.35;;;;;;;;;;5075702;28;20212;-67
2023/04/06 00:17:49;;;;;;;70.55;13.63;;;;;;;;;;5075451;28;20319;-66
2023/04/06 00:20:17;;;;;;;73.68;14.55;;;;;;;;;;5075184;28;20391;-67
2023/04/06 00:22:45;;;;;;;72.00;13.75;;;;;;;;;;5075627;28;20318;-67
2023/04/06 00:25:12;;;;;;;71.93;14.38;;;;;;;;;;5075363;28;20226;-67
2023/04/06 00:27:40;;;;;;;70.18;13.27;;;;;;;;;;5075404;28;20314;-66
2023/04/06 00:30:07;;;;;;;72.00;14.60;;;;;;;;;;5074962;28;20262;-67
2023/04/06 00:32:35;;;;;;;76.60;13.20;;;;;;;;;;5075264;28;20298;-67
2023/04/06 00:35:03;;;;;;;69.82;12.73;;;;;;;;;;5075021;28;20203;-67
2023/04/06 00:37:32;;;;;;;72.97;13.90;;;;;;;;;;5075246;28;20261;-67
2023/04/06 00:39:59;;;;;;;71.70;13.48;;;;;;;;;;5074948;28;20643;-66
2023/04/06 00:42:26;;;;;;;69.57;12.90;;;;;;;;;;5075030;28;20733;-67
2023/04/06 00:44:54;;;;;;;74.93;13.90;;;;;;;;;;5074967;28;20201;-68
2023/04/06 00:47:22;;;;;;;68.55;13.43;;;;;;;;;;5074820;28;20250;-67
2023/04/06 00:49:49;;;;;;;71.78;12.10;;;;;;;;;;5074443;28;20684;-67
2023/04/06 00:52:16;;;;;;;70.40;12.73;;;;;;;;;;5075515;28;20293;-66
2023/04/06 00:54:45;;;;;;;71.32;12.75;;;;;;;;;;5074810;28;20785;-67
2023/04/06 00:57:13;;;;;;;69.78;13.73;;;;;;;;;;5074648;28;20736;-67
2023/04/06 00:59:40;;;;;;;69.47;13.40;;;;;;;;;;5074317;28;20833;-67
2023/04/06 01:02:07;;;;;;;69.25;12.82;;;;;;;;;;5074630;28;20681;-66
2023/04/06 01:04:35;;;;;;;72.90;13.80;;;;;;;;;;5074601;28;20247;-67
2023/04/06 01:07:02;;;;;;;68.55;12.50;;;;;;;;;;5074748;28;20214;-66
2023/04/06 01:09:30;;;;;;;68.90;13.95;;;;;;;;;;5074229;28;20258;-67
2023/04/06 01:11:58;;;;;;;69.75;12.18;;;;;;;;;;5074605;28;20588;-66
2023/04/06 01:14:26;;;;;;;69.25;11.80;;;;;;;;;;5073128;28;20753;-66
2023/04/06 01:16:53;;;;;;;71.85;13.38;;;;;;;;;;5074345;28;20240;-67
2023/04/06 01:19:20;;;;;;;67.53;12.20;;;;;;;;;;5074060;28;20323;-66
2023/04/06 01:21:49;;;;;;;69.43;12.80;;;;;;;;;;5074325;28;20209;-67
2023/04/06 01:24:18;;;;;;;69.78;13.00;;;;;;;;;;5072930;28;20255;-67
2023/04/06 01:26:45;;;;;;;69.47;13.05;;;;;;;;;;5074323;28;20300;-67
2023/04/06 01:29:12;;;;;;;71.85;12.57;;;;;;;;;;5073943;28;20216;-66
2023/04/06 01:31:39;;;;;;;72.38;13.48;;;;;;;;;;5074255;28;20299;-67
2023/04/06 01:34:07;;;;;;;69.28;12.00;;;;;;;;;;5072894;28;20643;-66
2023/04/06 01:36:34;;;;;;;69.90;13.07;;;;;;;;;;5073996;28;20300;-66
2023/04/06 01:39:01;;;;;;;67.95;11.43;;;;;;;;;;5073438;28;20773;-67
2023/04/06 01:41:30;;;;;;;68.60;12.15;;;;;;;;;;5074165;28;20250;-67
2023/04/06 01:43:57;;;;;;;68.25;12.23;;;;;;;;;;5074205;28;20212;-66
2023/04/06 01:46:24;;;;;;;68.28;12.52;;;;;;;;;;5073936;28;20302;-66
2023/04/06 01:48:51;;;;;;;72.35;12.85;;;;;;;;;;5073382;28;20766;-67
2023/04/06 01:51:19;;;;;;;74.07;12.82;;;;;;;;;;5073693;28;20212;-67
2023/04/06 01:53:46;;;;;;;68.05;12.60;;;;;;;;;;5073902;28;20246;-67
2023/04/06 01:56:13;;;;;;;66.82;11.27;;;;;;;;;;5073729;28;20267;-67
2023/04/06 01:58:42;;;;;;;67.53;11.38;;;;;;;;;;5073309;28;20260;-66
2023/04/06 02:01:09;;;;;;;68.60;11.35;;;;;;;;;;5073488;28;20250;-67
2023/04/06 02:03:36;;;;;;;69.45;12.93;;;;;;;;;;5073479;28;20251;-67
2023/04/06 02:06:03;;;;;;;67.65;11.88;;;;;;;;;;5073873;28;20262;-67
2023/04/06 02:08:30;;;;;;;68.07;11.05;;;;;;;;;;5073556;28;20750;-66
2023/04/06 02:10:58;;;;;;;66.13;11.43;;;;;;;;;;5073434;28;20273;-66
2023/04/06 02:13:25;;;;;;;66.90;11.57;;;;;;;;;;5073447;28;20296;-67
2023/04/06 02:15:53;;;;;;;67.18;11.57;;;;;;;;;;5073312;28;20243;-68
2023/04/06 02:18:20;;;;;;;69.88;12.13;;;;;;;;;;5072882;28;20274;-67
2023/04/06 02:20:48;;;;;;;67.20;12.32;;;;;;;;;;5072941;28;20734;-67
2023/04/06 02:23:15;;;;;;;65.90;11.05;;;;;;;;;;5073181;28;20247;-66
2023/04/06 02:25:42;;;;;;;66.07;10.90;;;;;;;;;;5072706;28;20213;-68
2023/04/06 02:28:10;;;;;;;70.68;11.95;;;;;;;;;;5072873;28;20265;-67
2023/04/06 02:30:37;;;;;;;69.25;12.32;;;;;;;;;;5072684;28;20206;-66
2023/04/06 02:33:05;;;;;;;70.68;12.35;;;;;;;;;;5072879;28;20313;-67
2023/04/06 02:35:33;;;;;;;70.88;12.18;;;;;;;;;;5072830;28;20208;-68
2023/04/06 02:38:00;;;;;;;70.15;12.75;;;;;;;;;;5072589;28;20311;-67
2023/04/06 02:40:27;;;;;;;70.97;13.18;;;;;;;;;;5072823;28;20244;-67
2023/04/06 02:42:54;;;;;;;68.93;12.95;;;;;;;;;;5072690;28;20297;-67
2023/04/06 02:45:22;;;;;;;71.50;11.80;;;;;;;;;;5072588;28;20293;-67
2023/04/06 02:47:49;;;;;;;72.90;11.80;;;;;;;;;;5072800;28;20315;-68
2023/04/06 02:50:18;;;;;;;68.07;11.63;;;;;;;;;;5072300;28;20207;-68
2023/04/06 02:52:45;;;;;;;69.30;12.82;;;;;;;;;;5072733;28;20312;-67
2023/04/06 02:55:12;;;;;;;68.38;12.52;;;;;;;;;;5072472;28;20215;-68
2023/04/06 02:57:39;;;;;;;69.25;11.85;;;;;;;;;;5072392;28;20260;-69
2023/04/06 03:00:07;;;;;;;68.15;11.95;;;;;;;;;;5071905;28;20267;-67
2023/04/06 03:02:35;;;;;;;69.20;12.73;;;;;;;;;;5072625;28;20262;-67
2023/04/06 03:05:03;;;;;;;69.47;13.23;;;;;;;;;;5072510;28;20574;-67
2023/04/06 03:07:31;;;;;;;68.10;12.45;;;;;;;;;;5072772;28;20282;-68
2023/04/06 03:09:58;;;;;;;69.47;12.15;;;;;;;;;;5072057;28;20724;-68
2023/04/06 03:12:25;;;;;;;70.13;13.77;;;;;;;;;;5072208;28;20275;-68
2023/04/06 03:14:53;;;;;;;73.85;14.15;;;;;;;;;;5072395;28;20239;-67
2023/04/06 03:17:20;;;;;;;68.05;12.57;;;;;;;;;;5072279;28;20253;-68
2023/04/06 03:19:47;;;;;;;72.07;12.50;;;;;;;;;;5071892;28;20227;-68
2023/04/06 03:22:14;;;;;;;70.65;12.15;;;;;;;;;;5072175;28;20293;-67
2023/04/06 03:24:43;;;;;;;67.10;11.50;;;;;;;;;;5072169;28;20314;-67
2023/04/06 03:27:10;;;;;;;71.35;12.10;;;;;;;;;;5071810;28;20278;-68
2023/04/06 03:29:37;;;;;;;66.65;12.00;;;;;;;;;;5071814;28;20295;-68
2023/04/06 03:32:05;;;;;;;69.88;11.63;;;;;;;;;;5072108;28;20299;-67
2023/04/06 03:34:32;;;;;;;69.47;11.90;;;;;;;;;;5072074;28;20212;-67
2023/04/06 03:36:59;;;;;;;69.97;13.65;;;;;;;;;;5071221;28;20295;-67
2023/04/06 03:39:26;;;;;;;72.82;13.57;;;;;;;;;;5071411;28;20270;-67
2023/04/06 03:41:55;;;;;;;69.82;13.50;;;;;;;;;;5071850;28;20315;-67
2023/04/06 03:44:22;;;;;;;75.10;13.75;;;;;;;;;;5071976;28;20326;-67
2023/04/06 03:46:49;;;;;;;68.97;12.50;;;;;;;;;;5071963;28;20242;-67
2023/04/06 03:49:17;;;;;;;69.15;11.90;;;;;;;;;;5071339;28;20267;-68
2023/04/06 03:51:44;;;;;;;69.53;13.18;;;;;;;;;;5071753;28;20214;-67
2023/04/06 03:54:11;;;;;;;71.47;13.13;;;;;;;;;;5071631;28;20212;-67
2023/04/06 03:56:38;;;;;;;69.00;12.27;;;;;;;;;;5071883;28;20246;-67
2023/04/06 03:59:07;;;;;;;69.60;12.70;;;;;;;;;;5071326;28;20277;-68
2023/04/06 04:01:34;;;;;;;68.05;12.23;;;;;;;;;;5071665;28;20294;-67
2023/04/06 04:04:01;;;;;;;68.68;11.60;;;;;;;;;;5071613;28;20208;-66
2023/04/06 04:06:28;;;;;;;73.68;13.65;;;;;;;;;;5071577;28;20323;-67
2023/04/06 04:08:55;;;;;;;68.15;12.95;;;;;;;;;;5071095;28;20305;-67
2023/04/06 04:11:22;;;;;;;72.63;12.88;;;;;;;;;;5071553;28;20254;-67
2023/04/06 04:13:50;;;;;;;68.78;12.05;;;;;;;;;;5071589;28;20295;-67
2023/04/06 04:16:18;;;;;;;69.57;12.13;;;;;;;;;;5071473;28;20251;-67
2023/04/06 04:18:47;;;;;;;69.60;12.10;;;;;;;;;;5071075;28;20264;-67
2023/04/06 04:21:14;;;;;;;68.70;12.77;;;;;;;;;;5071295;28;20255;-67
2023/04/06 04:23:41;;;;;;;70.38;13.02;;;;;;;;;;5071273;28;20216;-67
2023/04/06 04:26:08;;;;;;;71.68;14.27;;;;;;;;;;5071594;28;20216;-67
2023/04/06 04:28:35;;;;;;;72.55;13.85;;;;;;;;;;5071101;28;20314;-68
2023/04/06 04:31:02;;;;;;;68.10;13.00;;;;;;;;;;5071512;28;20239;-67
2023/04/06 04:33:31;;;;;;;73.05;13.13;;;;;;;;;;5071371;28;20299;-68
2023/04/06 04:35:58;;;;;;;70.72;12.98;;;;;;;;;;5071220;28;20243;-68
2023/04/06 04:38:25;;;;;;;70.88;13.25;;;;;;;;;;5071161;28;20312;-67
2023/04/06 04:40:52;;;;;;;74.15;12.98;;;;;;;;;;5071213;28;20263;-67
2023/04/06 04:43:20;;;;;;;67.80;12.32;;;;;;;;;;5071422;28;20349;-67
2023/04/06 04:45:47;;;;;;;69.78;13.55;;;;;;;;;;5071252;28;20295;-67
2023/04/06 04:48:14;;;;;;;67.65;12.93;;;;;;;;;;5073251;28;20266;-69
2023/04/06 04:50:42;;;;;;;68.20;12.07;;;;;;;;;;5074902;28;20591;-67
2023/04/06 04:53:10;;;;;;;68.60;11.70;;;;;;;;;;5075042;28;20239;-67
2023/04/06 04:55:37;;;;;;;70.55;13.82;;;;;;;;;;5075047;28;20288;-68
2023/04/06 04:58:04;;;;;;;70.35;13.05;;;;;;;;;;5074694;28;20311;-67
2023/04/06 05:00:31;;;;;;;72.15;12.73;;;;;;;;;;5074504;28;20567;-67
2023/04/06 05:02:58;;;;;;;70.50;14.25;;;;;;;;;;5074561;28;20240;-67
2023/04/06 05:05:25;;;;;;;70.68;13.13;;;;;;;;;;5074909;28;20299;-67
2023/04/06 05:07:54;;;;;;;76.03;13.90;;;;;;;;;;5074703;28;20263;-68
2023/04/06 05:10:21;;;;;;;69.03;12.30;;;;;;;;;;5074382;28;20204;-67
2023/04/06 05:12:48;;;;;;;69.45;12.73;;;;;;;;;;5074568;28;20299;-67
2023/04/06 05:15:16;;;;;;;70.05;12.93;;;;;;;;;;5074481;28;20288;-67
2023/04/06 05:17:43;;;;;;;69.97;13.82;;;;;;;;;;5074544;28;20270;-69
2023/04/06 05:20:11;;;;;;;74.05;13.15;;;;;;;;;;5074203;28;20314;-67
2023/04/06 05:22:38;;;;;;;71.00;14.00;;;;;;;;;;5074302;28;20251;-67
2023/04/06 05:25:07;;;;;;;68.32;12.90;;;;;;;;;;5074207;28;20304;-67
2023/04/06 05:27:34;;;;;;;70.82;13.63;;;;;;;;;;5074293;28;20650;-66
2023/04/06 05:30:01;;;;;;;69.85;13.23;;;;;;;;;;5074249;28;20204;-68
2023/04/06 05:32:29;;;;;;;70.30;13.95;;;;;;;;;;5074281;28;20739;-67
2023/04/06 05:34:56;;;;;;;71.72;14.25;;;;;;;;;;5074023;28;20216;-68
2023/04/06 05:37:23;;;;;;;68.22;13.00;;;;;;;;;;5074091;28;20204;-67
2023/04/06 05:39:50;;;;;;;68.28;13.07;;;;;;;;;;5073724;28;20255;-67
2023/04/06 05:42:19;;;;;;;72.38;14.25;;;;;;;;;;5073911;28;20243;-68
2023/04/06 05:44:46;;;;;;;69.53;13.90;;;;;;;;;;5073875;28;20673;-67
2023/04/06 05:47:14;;;;;;;69.50;13.50;;;;;;;;;;5074054;28;20635;-68
2023/04/06 05:49:43;;;;;;;69.63;13.65;;;;;;;;;;5073985;28;20240;-67
2023/04/06 05:52:10;;;;;;;70.15;13.43;;;;;;;;;;5073728;28;20295;-67
2023/04/06 05:54:37;;;;;;;72.25;13.80;;;;;;;;;;5073780;28;20205;-67
2023/04/06 05:57:05;;;;;;;71.05;12.50;;;;;;;;;;5073616;28;20299;-67
2023/04/06 05:59:33;;;;;;;73.18;13.77;;;;;;;;;;5072657;28;20259;-68
2023/04/06 06:02:01;;;;;;;72.70;14.02;;;;;;;;;;5073830;28;20251;-67
2023/04/06 06:04:28;;;;;;;72.57;14.70;;;;;;;;;;5074039;28;20327;-68
2023/04/06 06:06:55;;;;;;;69.43;12.55;;;;;;;;;;5073613;28;20574;-67
2023/04/06 06:09:22;;;;;;;69.85;13.43;;;;;;;;;;5073034;28;20796;-67
2023/04/06 06:11:50;;;;;;;72.72;14.32;;;;;;;;;;5073678;28;20267;-67
2023/04/06 06:14:17;;;;;;;68.53;13.40;;;;;;;;;;5073534;28;20211;-67
2023/04/06 06:16:45;;;;;;;71.13;13.00;;;;;;;;;;5073482;28;20207;-66
2023/04/06 06:19:13;;;;;;;69.18;14.52;;;;;;;;;;5072750;28;20255;-67
2023/04/06 06:21:40;;;;;;;69.60;13.25;;;;;;;;;;5073195;28;20254;-67
2023/04/06 06:24:07;;;;;;;69.20;13.07;;;;;;;;;;5072952;28;20275;-67
2023/04/06 06:26:36;;;;;;;69.65;13.75;;;;;;;;;;5073066;28;20241;-68
2023/04/06 06:29:05;;;;;;;71.13;13.75;;;;;;;;;;5072624;28;20235;-67
2023/04/06 06:31:32;;;;;;;72.80;14.77;;;;;;;;;;5073038;28;20211;-67
2023/04/06 06:34:01;;;;;;;73.28;14.93;;;;;;;;;;5072921;28;20241;-68
2023/04/06 06:36:28;;;;;;;70.65;13.38;;;;;;;;;;5072935;28;20611;-67
2023/04/06 06:38:56;;;;;;;68.88;13.80;;;;;;;;;;5072410;28;20659;-67
2023/04/06 06:41:23;;;;;;;70.53;14.05;;;;;;;;;;5072962;28;20323;-67
2023/04/06 06:43:50;;;;;;;70.00;13.88;;;;;;;;;;5072958;28;20264;-67
2023/04/06 06:46:17;;;;;;;70.55;14.57;;;;;;;;;;5072742;28;20241;-68
2023/04/06 06:48:44;;;;;;;70.10;14.48;;;;;;;;;;5072363;28;20311;-67
2023/04/06 06:51:13;;;;;;;70.00;13.63;;;;;;;;;;5072502;28;20237;-68
2023/04/06 06:53:40;;;;;;;69.07;12.25;;;;;;;;;;5072805;28;20248;-67
2023/04/06 06:56:07;;;;;;;68.22;13.45;;;;;;;;;;5072643;28;20302;-67
2023/04/06 06:58:35;;;;;;;68.40;12.68;;;;;;;;;;5072057;28;20260;-67
2023/04/06 07:01:02;;;;;;;69.38;13.43;;;;;;;;;;5072326;28;20701;-67
2023/04/06 07:03:29;;;;;;;71.15;13.27;;;;;;;;;;5072531;28;20594;-67
2023/04/06 07:05:57;;;;;;;68.28;13.07;;;;;;;;;;5072249;28;20263;-67
2023/04/06 07:08:26;;;;;;;67.78;12.85;;;;;;;;;;5072180;28;20308;-68
2023/04/06 07:10:55;;;;;;;71.57;13.38;;;;;;;;;;5072151;28;20201;-68
2023/04/06 07:13:23;;;;;;;75.18;12.35;;;;;;;;;;5072497;28;20215;-67
2023/04/06 07:15:50;;;;;;;69.72;13.18;;;;;;;;;;5072179;28;20251;-67
2023/04/06 07:18:18;;;;;;;69.55;13.82;;;;;;;;;;5071934;28;20261;-67
2023/04/06 07:20:45;;;;;;;69.63;13.65;;;;;;;;;;5071991;28;20675;-68
2023/04/06 07:23:12;;;;;;;73.55;14.15;;;;;;;;;;5072144;28;20652;-68
2023/04/06 07:25:41;;;;;;;70.82;14.10;;;;;;;;;;5072437;28;20243;-67
2023/04/06 07:28:08;;;;;;;70.30;12.93;;;;;;;;;;5071954;28;20225;-67
2023/04/06 07:30:35;;;;;;;75.22;13.18;;;;;;;;;;5071818;28;20243;-67
2023/04/06 07:33:02;;;;;;;74.32;14.18;;;;;;;;;;5071882;28;20241;-67
2023/04/06 07:35:30;;;;;;;68.97;13.18;;;;;;;;;;5071958;28;20209;-67
2023/04/06 07:37:57;;;;;;;73.00;13.80;;;;;;;;;;5071971;28;20255;-67
2023/04/06 07:40:25;;;;;;;66.82;11.82;;;;;;;;;;5071679;28;20253;-67
2023/04/06 07:42:54;;;;;;;71.10;14.32;;;;;;;;;;5071840;28;20343;-68
2023/04/06 07:45:22;;;;;;;69.30;13.32;;;;;;;;;;5071758;28;20577;-67
2023/04/06 07:47:49;;;;;;;69.47;13.57;;;;;;;;;;5071897;28;20257;-69
2023/04/06 07:50:16;;;;;;;72.80;12.80;;;;;;;;;;5071317;28;20205;-67
2023/04/06 07:52:44;;;;;;;68.82;13.38;;;;;;;;;;5071888;28;20232;-68
2023/04/06 07:55:11;;;;;;;70.90;13.82;;;;;;;;;;5071726;28;20216;-67
2023/04/06 07:57:38;;;;;;;67.45;12.13;;;;;;;;;;5072027;28;20252;-67
2023/04/06 08:00:09;;;;;;;70.13;13.35;;;;;;;;;;5071629;28;20256;-68
2023/04/06 08:02:36;;;;;;;70.57;11.93;;;;;;;;;;5071900;28;20205;-68
2023/04/06 08:05:03;;;;;;;70.25;12.60;;;;;;;;;;5071828;28;20300;-69
2023/04/06 08:07:30;;;;;;;73.45;12.65;;;;;;;;;;5071732;28;20311;-67
2023/04/06 08:09:57;;;;;;;68.03;11.77;;;;;;;;;;5071655;28;20201;-68
2023/04/06 08:12:25;;;;;;;69.25;11.80;;;;;;;;;;5071585;28;20295;-67
2023/04/06 08:14:52;;;;;;;67.18;12.13;;;;;;;;;;5071723;28;20292;-67
2023/04/06 08:17:21;;;;;;;69.35;12.45;;;;;;;;;;5071410;28;20240;-67
2023/04/06 08:19:49;;;;;;;70.60;11.80;;;;;;;;;;5071002;28;20697;-67
2023/04/06 08:22:16;;;;;;;69.35;12.38;;;;;;;;;;5071748;28;20209;-68
2023/04/06 08:24:43;;;;;;;68.63;11.70;;;;;;;;;;5075241;28;20304;-67
2023/04/06 08:27:10;;;;;;;68.23;12.30;;;;;;;;;;5075355;28;20874;-67
2023/04/06 08:29:37;;;;;;;71.55;12.27;;;;;;;;;;5075246;28;20886;-67
2023/04/06 08:32:06;;;;;;;73.73;12.87;;;;;;;;;;5075582;28;20652;-68
2023/04/06 08:34:35;;;;;;;68.03;11.95;;;;;;;;;;5075364;28;20450;-68
2023/04/06 08:37:02;;;;;;;67.50;11.57;;;;;;;;;;5075182;28;20210;-69
2023/04/06 08:39:30;;;;;;;69.10;12.07;;;;;;;;;;5074676;28;20506;-67
2023/04/06 08:41:59;;;;;;;71.70;12.57;;;;;;;;;;5075009;28;20221;-68
2023/04/06 08:44:26;;;;;;;68.37;12.57;;;;;;;;;;5075260;28;20451;-68
2023/04/06 08:46:54;;;;;;;68.80;10.93;;;;;;;;;;5075133;28;20475;-67
2023/04/06 08:49:21;;;;;;;70.27;12.40;;;;;;;;;;5074671;28;20478;-67
2023/04/06 08:51:50;;;;;;;68.50;11.87;;;;;;;;;;5074944;28;20497;-67
2023/04/06 08:54:18;;;;;;;68.90;12.37;;;;;;;;;;5074782;28;20814;-67
2023/04/06 08:56:45;;;;;;;69.33;10.87;;;;;;;;;;5074993;28;20482;-68
2023/04/06 08:59:12;;;;;;;70.40;11.70;;;;;;;;;;5074524;28;20906;-67
2023/04/06 09:01:41;;;;;;;70.13;12.70;;;;;;;;;;5074654;28;20518;-68
2023/04/06 09:04:10;;;;;;;69.83;11.97;;;;;;;;;;5074701;28;20443;-69
2023/04/06 09:06:38;;;;;;;67.23;11.50;;;;;;;;;;5074472;28;20492;-65
2023/04/06 09:09:06;;;;;;;68.23;10.77;;;;;;;;;;5074386;28;20475;-66
2023/04/06 09:11:43;;;;;;;68.97;12.63;;;;;;;;;;5075026;28;20875;-66
2023/04/06 09:14:10;;;;;;;67.57;11.23;;;;;;;;;;5074479;28;20537;-66
2023/04/06 09:16:41;;;;;;;68.40;11.00;;;;;;;;;;5074554;28;20868;-66
2023/04/06 09:19:08;;;;;;;70.20;11.80;;;;;;;;;;5073932;28;20471;-66
2023/04/06 09:21:36;;;;;;;67.27;11.50;;;;;;;;;;5074490;28;20574;-66
2023/04/06 09:24:04;;;;;;;67.00;11.40;;;;;;;;;;5074440;28;20849;-66
2023/04/06 09:26:33;;;;;;;67.20;11.50;;;;;;;;;;5074482;28;20558;-65
2023/04/06 09:29:03;;;;;;;68.47;11.40;;;;;;;;;;5073824;28;20473;-67
2023/04/06 09:31:32;;;;;;;67.53;10.67;;;;;;;;;;5074161;28;20947;-67
2023/04/06 09:34:00;;;;;;;69.17;11.70;;;;;;;;;;5073249;28;20478;-67
2023/04/06 09:36:34;;;;;;;68.80;12.50;;;;;;;;;;5074062;28;21010;-66
2023/04/06 09:39:01;;;;;;;68.07;11.60;;;;;;;;;;5073632;28;20471;-66
2023/04/06 09:41:30;;;;;;;67.90;11.60;;;;;;;;;;5074012;28;20519;-67
2023/04/06 09:44:05;;;;;;;70.77;12.50;;;;;;;;;;5073936;28;20452;-67
2023/04/06 09:46:33;;;;;;;68.00;11.57;;;;;;;;;;5074187;28;20534;-67
2023/04/06 09:49:01;;;;;;;67.67;9.87;;;;;;;;;;5073675;28;20473;-67
2023/04/06 09:51:30;;;;;;;69.57;10.10;;;;;;;;;;5073926;28;20447;-67
2023/04/06 09:54:01;;;;;;;68.00;10.00;;;;;;;;;;5073900;28;20543;-67
2023/04/06 09:56:29;;;;;;;65.83;9.77;;;;;;;;;;5073787;28;20534;-66
2023/04/06 09:58:58;;;;;;;65.43;9.27;;;;;;;;;;5073235;28;20869;-68
2023/04/06 10:01:29;;;;;;;64.20;9.17;;;;;;;;;;5073757;28;20579;-66
2023/04/06 10:04:02;;;;;;;66.23;9.30;;;;;;;;;;5073775;28;20873;-67
2023/04/06 10:06:32;;;;;;;65.10;9.30;;;;;;;;;;5073612;28;20534;-67
2023/04/06 10:09:00;;;;;;;64.67;10.67;;;;;;;;;;5073348;28;20459;-67
2023/04/06 10:11:27;;;;;;;66.53;9.70;;;;;;;;;;5073407;28;20467;-67
2023/04/06 10:13:54;;;;;;;67.43;12.50;;;;;;;;;;5073531;28;20877;-67
2023/04/06 10:16:22;;;;;;;70.03;12.70;;;;;;;;;;5073622;28;20498;-67
2023/04/06 10:18:53;;;;;;;65.57;11.70;;;;;;;;;;5072848;28;21071;-68
2023/04/06 10:21:22;;;;;;;64.40;10.60;;;;;;;;;;5073135;28;20511;-67
2023/04/06 10:23:49;;;;;;;63.50;9.60;;;;;;;;;;5072976;28;20899;-68
2023/04/06 10:26:18;;;;;;;65.23;11.20;;;;;;;;;;5073283;28;20504;-67
2023/04/06 10:28:47;;;;;;;65.20;11.50;;;;;;;;;;5073093;28;20471;-69
2023/04/06 10:31:14;;;;;;;65.20;9.70;;;;;;;;;;5073032;28;20483;-67
2023/04/06 10:33:41;;;;;;;66.20;10.03;;;;;;;;;;5073114;28;20443;-69
2023/04/06 10:36:14;;;;;;;66.63;11.13;;;;;;;;;;5072897;28;20569;-68
2023/04/06 10:38:41;;;;;;;64.07;10.47;;;;;;;;;;5072438;28;20468;-67
2023/04/06 10:41:09;;;;;;;62.47;8.87;;;;;;;;;;5072965;28;20574;-67
2023/04/06 10:43:37;;;;;;;64.27;10.53;;;;;;;;;;5072757;28;20490;-67
2023/04/06 10:46:05;;;;;;;62.70;8.93;;;;;;;;;;5072471;28;20447;-68
2023/04/06 10:48:40;;;;;;;65.47;10.93;;;;;;;;;;5072448;28;20528;-68
2023/04/06 10:51:11;;;;;;;64.20;10.87;;;;;;;;;;5072589;28;20924;-68
2023/04/06 10:53:41;;;;;;;66.17;10.63;;;;;;;;;;5073001;28;20461;-67
2023/04/06 10:56:12;;;;;;;63.27;10.03;;;;;;;;;;5072629;28;20483;-67
2023/04/06 10:58:39;;;;;;;63.60;9.57;;;;;;;;;;5072212;28;20846;-67
2023/04/06 11:01:06;;;;;;;64.10;9.60;;;;;;;;;;5072343;28;20475;-67
2023/04/06 11:03:34;;;;;;;64.37;10.07;;;;;;;;;;5072282;28;20477;-67
2023/04/06 11:06:01;;;;;;;63.00;10.17;;;;;;;;;;5072563;28;20443;-67
2023/04/06 11:08:30;;;;;;;64.27;10.17;;;;;;;;;;5072310;28;20505;-70
2023/04/06 11:11:10;;;;;;;64.77;9.77;;;;;;;;;;5072137;28;20443;-67
2023/04/06 11:13:42;;;;;;;62.87;9.20;;;;;;;;;;5072300;28;20827;-68
2023/04/06 11:16:13;;;;;;;63.30;9.47;;;;;;;;;;5072180;28;20491;-68
2023/04/06 11:18:48;;;;;;;63.70;10.77;;;;;;;;;;5071958;28;20467;-65
2023/04/06 11:21:15;;;;;;;64.27;10.40;;;;;;;;;;5072295;28;20526;-68
2023/04/06 11:23:42;;;;;;;62.97;9.20;;;;;;;;;;5072132;28;20510;-68
2023/04/06 11:26:13;;;;;;;64.40;10.37;;;;;;;;;;5071987;28;20483;-68
2023/04/06 11:28:41;;;;;;;63.97;10.40;;;;;;;;;;5071616;28;21011;-69
2023/04/06 11:31:08;;;;;;;62.63;9.40;;;;;;;;;;5072256;28;20723;-67
2023/04/06 11:33:39;;;;;;;64.37;9.50;;;;;;;;;;5072126;28;20876;-67
2023/04/06 11:36:07;;;;;;;64.40;10.33;;;;;;;;;;5071940;28;20454;-67
2023/04/06 11:38:34;;;;;;;62.63;9.20;;;;;;;;;;5071532;28;20504;-67
2023/04/06 11:41:02;;;;;;;63.37;9.43;;;;;;;;;;5071872;28;20486;-67
2023/04/06 11:43:31;;;;;;;62.37;9.07;;;;;;;;;;5071979;28;20446;-68
2023/04/06 11:46:02;;;;;;;63.17;9.30;;;;;;;;;;5072141;28;20451;-66
2023/04/06 11:48:29;;;;;;;63.90;9.03;;;;;;;;;;5071509;28;20468;-70
2023/04/06 11:50:57;;;;;;;65.20;9.57;;;;;;;;;;5071602;28;20496;-68
2023/04/06 11:53:25;;;;;;;63.30;9.10;;;;;;;;;;5071708;28;20443;-66
2023/04/06 11:55:52;;;;;;;62.77;9.50;;;;;;;;;;5071932;28;20451;-67
2023/04/06 11:58:19;;;;;;;63.20;9.57;;;;;;;;;;5070821;28;20546;-67
2023/04/06 12:00:48;;;;;;;62.30;9.33;;;;;;;;;;5071424;28;21020;-67
2023/04/06 12:03:15;;;;;;;63.80;8.70;;;;;;;;;;5071553;28;20497;-68
2023/04/06 12:05:42;;;;;;;62.87;8.87;;;;;;;;;;5071657;28;20439;-67
2023/04/06 12:08:09;;;;;;;62.97;8.30;;;;;;;;;;5071453;28;20498;-67
2023/04/06 12:10:37;;;;;;;62.70;8.50;;;;;;;;;;5071467;28;20530;-67
2023/04/06 12:13:04;;;;;;;62.30;7.80;;;;;;;;;;5071806;28;20574;-69
2023/04/06 12:15:31;;;;;;;62.63;8.43;;;;;;;;;;5071695;28;20488;-67
2023/04/06 12:18:00;;;;;;;62.27;8.60;;;;;;;;;;5071312;28;20557;-68
2023/04/06 12:20:27;;;;;;;63.20;8.17;;;;;;;;;;5071174;28;20487;-67
2023/04/06 12:22:54;;;;;;;64.60;8.97;;;;;;;;;;5071686;28;20530;-68
2023/04/06 12:25:21;;;;;;;61.30;8.33;;;;;;;;;;5071366;28;20459;-67
2023/04/06 12:27:48;;;;;;;62.67;8.70;;;;;;;;;;5071438;28;20554;-68
2023/04/06 12:30:16;;;;;;;60.57;8.10;;;;;;;;;;5071095;28;20954;-68
2023/04/06 12:32:43;;;;;;;60.90;7.50;;;;;;;;;;5071268;28;20646;-67
2023/04/06 12:35:15;;;;;;;61.77;8.67;;;;;;;;;;5071449;28;20454;-68
2023/04/06 12:37:43;;;;;;;61.57;8.03;;;;;;;;;;5071541;28;20474;-67
2023/04/06 12:40:11;;;;;;;69.83;8.40;;;;;;;;;;5071179;28;20550;-67
2023/04/06 12:42:40;;;;;;;61.47;8.30;;;;;;;;;;5071391;28;20451;-69
2023/04/06 12:45:08;;;;;;;62.67;8.40;;;;;;;;;;5071341;28;20443;-68
2023/04/06 12:47:37;;;;;;;61.70;8.07;;;;;;;;;;5071072;28;20490;-67
2023/04/06 12:50:05;;;;;;;63.67;8.30;;;;;;;;;;5070837;28;20486;-67
2023/04/06 12:52:35;;;;;;;60.30;6.80;;;;;;;;;;5071373;28;20483;-66
2023/04/06 12:55:02;;;;;;;62.97;7.87;;;;;;;;;;5071444;28;20454;-66
2023/04/06 12:57:30;;;;;;;60.50;6.60;;;;;;;;;;5071155;28;20850;-67
2023/04/06 12:59:58;;;;;;;60.77;7.03;;;;;;;;;;5070711;28;20451;-66
2023/04/06 13:02:25;;;;;;;61.20;7.00;;;;;;;;;;5071333;28;20440;-67
2023/04/06 13:04:53;;;;;;;60.67;6.97;;;;;;;;;;5071057;28;20451;-68
2023/04/06 13:07:20;;;;;;;60.07;6.27;;;;;;;;;;5070927;28;20481;-69
2023/04/06 13:09:49;;;;;;;61.57;6.87;;;;;;;;;;5073379;28;20490;-69
2023/04/06 13:12:16;;;;;;;61.97;6.63;;;;;;;;;;5074520;28;20486;-66
2023/04/06 13:14:44;;;;;;;61.80;6.50;;;;;;;;;;5074432;28;20542;-67
2023/04/06 13:17:11;;;;;;;60.83;6.30;;;;;;;;;;5074366;28;20538;-66
2023/04/06 13:19:38;;;;;;;61.60;7.83;;;;;;;;;;5074270;28;20980;-67
2023/04/06 13:22:05;;;;;;;60.40;6.90;;;;;;;;;;5074468;28;20607;-66
2023/04/06 13:24:33;;;;;;;60.73;7.00;;;;;;;;;;5074377;28;20889;-66
2023/04/06 13:27:02;;;;;;;61.70;7.17;;;;;;;;;;5074242;28;20443;-66
2023/04/06 13:29:29;;;;;;;63.20;7.40;;;;;;;;;;5074092;28;20572;-65
2023/04/06 13:31:56;;;;;;;62.07;7.10;;;;;;;;;;5074228;28;20483;-68
2023/04/06 13:34:24;;;;;;;61.37;6.30;;;;;;;;;;5074343;28;20475;-65
2023/04/06 13:36:51;;;;;;;63.97;6.97;;;;;;;;;;5074142;28;20455;-68
2023/04/06 13:39:18;;;;;;;62.43;7.40;;;;;;;;;;5073719;28;20473;-69
2023/04/06 13:41:45;;;;;;;62.77;8.27;;;;;;;;;;5073985;28;20518;-68
2023/04/06 13:44:14;;;;;;;61.77;6.70;;;;;;;;;;5074101;28;20956;-68
2023/04/06 13:46:41;;;;;;;61.23;6.93;;;;;;;;;;5074041;28;20529;-68
2023/04/06 13:49:08;;;;;;;61.00;7.10;;;;;;;;;;5073612;28;20941;-69
2023/04/06 13:51:35;;;;;;;62.43;8.10;;;;;;;;;;5073904;28;20884;-68
2023/04/06 13:54:03;;;;;;;62.63;8.20;;;;;;;;;;5073716;28;20447;-69
2023/04/06 13:56:30;;;;;;;62.93;7.97;;;;;;;;;;5073974;28;20447;-68
2023/04/06 13:58:58;;;;;;;62.00;8.20;;;;;;;;;;5073557;28;20824;-68
2023/04/06 14:01:27;;;;;;;62.53;7.03;;;;;;;;;;5073950;28;20462;-68
2023/04/06 14:03:54;;;;;;;62.10;7.87;;;;;;;;;;5073806;28;20443;-67
2023/04/06 14:06:21;;;;;;;62.37;7.80;;;;;;;;;;5073662;28;20475;-68
2023/04/06 14:08:48;;;;;;;61.40;7.33;;;;;;;;;;5073102;28;20463;-67
2023/04/06 14:11:16;;;;;;;61.60;7.00;;;;;;;;;;5073715;28;20448;-68
2023/04/06 14:13:43;;;;;;;61.40;7.23;;;;;;;;;;5073506;28;20487;-68
2023/04/06 14:16:10;;;;;;;62.37;7.67;;;;;;;;;;5073482;28;20459;-66
2023/04/06 14:18:39;;;;;;;62.57;7.43;;;;;;;;;;5072984;28;20881;-66
2023/04/06 14:21:06;;;;;;;64.50;7.80;;;;;;;;;;5072588;28;20447;-67
2023/04/06 14:23:33;;;;;;;61.30;7.93;;;;;;;;;;5073024;28;20952;-69